Time;durP1;ratioP1;P1;durP2;ratioP2;P2;SDS_P1;SDS_P2;PMS_P1;PMS_P2;Temp;Humidity;BMP_temperature;BMP_pressure;BME280_temperature;BME280_humidity;BME280_pressure;Samples;Min_cycle;Max_cycle;Signal;HPM_P1;HPM_P2
2022/03/19 00:02:20;;;;;;;10.38;2.22;;;3.70;74.90;;;;;;5084911;28;20044;-69
2022/03/19 00:04:46;;;;;;;16.77;3.08;;;3.70;74.90;;;;;;5068076;28;20040;-68
2022/03/19 00:07:13;;;;;;;15.33;2.30;;;3.70;74.80;;;;;;5100439;28;20040;-69
2022/03/19 00:09:39;;;;;;;12.57;2.08;;;3.60;74.70;;;;;;5102867;28;20504;-69
2022/03/19 00:12:07;;;;;;;15.50;2.90;;;3.60;74.70;;;;;;5098171;28;20084;-70
2022/03/19 00:14:33;;;;;;;15.23;2.72;;;3.60;74.80;;;;;;5049175;28;20052;-69
2022/03/19 00:16:59;;;;;;;13.10;2.30;;;3.60;74.90;;;;;;5047649;28;20135;-69
2022/03/19 00:19:25;;;;;;;13.60;2.60;;;3.50;74.80;;;;;;5049591;28;20119;-69
2022/03/19 00:21:51;;;;;;;14.82;2.40;;;3.50;74.80;;;;;;5050126;28;20807;-68
2022/03/19 00:24:16;;;;;;;10.33;2.33;;;3.50;74.80;;;;;;5073438;28;20130;-68
2022/03/19 00:26:42;;;;;;;14.97;2.03;;;3.50;74.90;;;;;;5089192;27;20044;-68
2022/03/19 00:29:08;;;;;;;13.60;2.30;;;3.50;74.90;;;;;;5032074;28;20052;-68
2022/03/19 00:31:35;;;;;;;14.90;2.53;;;3.50;74.80;;;;;;5064290;28;20033;-69
2022/03/19 00:34:00;;;;;;;10.32;2.55;;;3.50;74.70;;;;;;5063596;28;20373;-68
2022/03/19 00:36:27;;;;;;;16.33;2.23;;;3.40;74.90;;;;;;5047335;28;20687;-68
2022/03/19 00:38:54;;;;;;;15.30;2.83;;;3.40;74.70;;;;;;5097040;28;20117;-68
2022/03/19 00:41:20;;;;;;;9.52;2.28;;;3.40;74.80;;;;;;5064382;28;20045;-68
2022/03/19 00:43:46;;;;;;;11.55;2.00;;;3.30;74.80;;;;;;5059749;28;20070;-68
2022/03/19 00:46:13;;;;;;;13.13;2.28;;;3.30;74.90;;;;;;5063389;28;20123;-68
2022/03/19 00:48:40;;;;;;;12.85;2.13;;;3.30;75.00;;;;;;5099627;28;20610;-68
2022/03/19 00:51:06;;;;;;;17.90;2.80;;;3.30;74.90;;;;;;5063954;28;20036;-68
2022/03/19 00:53:31;;;;;;;16.60;2.87;;;3.20;74.90;;;;;;5078398;28;20786;-68
2022/03/19 00:55:57;;;;;;;11.67;2.37;;;3.20;75.10;;;;;;5064906;28;20501;-68
2022/03/19 00:58:23;;;;;;;10.67;2.33;;;3.20;75.10;;;;;;5065230;28;20036;-68
2022/03/19 01:00:48;;;;;;;13.17;2.50;;;3.10;75.20;;;;;;5050631;28;20411;-67
2022/03/19 01:03:15;;;;;;;14.50;2.07;;;3.10;75.40;;;;;;5056300;28;20032;-67
2022/03/19 01:05:42;;;;;;;12.23;2.50;;;3.10;75.50;;;;;;5078688;28;20091;-67
2022/03/19 01:08:08;;;;;;;17.20;3.20;;;3.10;75.80;;;;;;5099773;27;20532;-67
2022/03/19 01:10:35;;;;;;;17.60;2.42;;;3.00;75.60;;;;;;5100135;28;20049;-67
2022/03/19 01:13:03;;;;;;;17.05;2.70;;;3.00;76.10;;;;;;5074629;28;20516;-68
2022/03/19 01:15:30;;;;;;;14.90;2.22;;;3.00;75.90;;;;;;5098203;28;20045;-67
2022/03/19 01:17:56;;;;;;;13.60;2.13;;;3.00;75.90;;;;;;5098600;28;20075;-67
2022/03/19 01:20:22;;;;;;;15.47;2.13;;;3.00;76.10;;;;;;5068433;28;20090;-67
2022/03/19 01:22:48;;;;;;;11.05;2.40;;;3.00;76.00;;;;;;5099567;28;20105;-67
2022/03/19 01:25:16;;;;;;;9.30;1.83;;;3.00;76.10;;;;;;5064013;28;20029;-67
2022/03/19 01:27:44;;;;;;;14.95;2.63;;;2.90;76.20;;;;;;5062937;28;20049;-67
2022/03/19 01:30:11;;;;;;;9.75;2.20;;;2.90;76.10;;;;;;5061894;28;20033;-67
2022/03/19 01:32:38;;;;;;;26.50;2.70;;;2.90;76.40;;;;;;5048987;28;20063;-67
2022/03/19 01:35:04;;;;;;;12.68;2.33;;;2.90;76.40;;;;;;5046042;28;20037;-67
2022/03/19 01:37:30;;;;;;;12.75;1.70;;;2.90;76.60;;;;;;5044051;28;20129;-67
2022/03/19 01:39:56;;;;;;;16.95;2.30;;;2.90;76.60;;;;;;5080849;28;20048;-67
2022/03/19 01:42:26;;;;;;;15.18;3.00;;;2.90;76.70;;;;;;5081478;28;20045;-67
2022/03/19 01:44:53;;;;;;;15.13;2.70;;;2.80;76.70;;;;;;5064447;28;20508;-67
2022/03/19 01:47:20;;;;;;;16.35;2.28;;;2.80;76.70;;;;;;5048456;28;20150;-68
2022/03/19 01:49:46;;;;;;;11.18;2.05;;;2.70;76.80;;;;;;5065160;28;20036;-68
2022/03/19 01:52:12;;;;;;;18.47;2.63;;;2.80;77.00;;;;;;5052220;28;20056;-67
2022/03/19 01:54:42;;;;;;;11.80;2.37;;;2.80;77.00;;;;;;5051687;28;20400;-67
2022/03/19 01:57:10;;;;;;;16.30;2.08;;;2.80;76.90;;;;;;5052034;28;20310;-67
2022/03/19 01:59:37;;;;;;;19.42;2.42;;;2.80;77.00;;;;;;5035614;28;20028;-67
2022/03/19 02:02:07;;;;;;;11.38;2.47;;;2.70;77.10;;;;;;5050831;28;20059;-67
2022/03/19 02:04:36;;;;;;;18.52;2.30;;;2.70;77.20;;;;;;5071040;28;20041;-67
2022/03/19 02:07:03;;;;;;;17.35;2.97;;;2.70;77.20;;;;;;5063954;28;20044;-67
2022/03/19 02:09:29;;;;;;;12.18;2.78;;;2.70;77.20;;;;;;5072534;28;20109;-68
2022/03/19 02:11:55;;;;;;;11.23;1.55;;;2.80;77.30;;;;;;5105746;27;20060;-68
2022/03/19 02:14:21;;;;;;;13.93;2.00;;;2.70;77.40;;;;;;5088369;28;20051;-68
2022/03/19 02:16:47;;;;;;;14.37;2.37;;;2.70;77.30;;;;;;5089111;28;20389;-68
2022/03/19 02:19:13;;;;;;;15.63;2.83;;;2.60;77.30;;;;;;5088746;28;20458;-68
2022/03/19 02:21:41;;;;;;;17.73;3.15;;;2.60;77.30;;;;;;5049422;28;20117;-68
2022/03/19 02:26:51;;;;;;;16.90;2.78;;;2.50;77.70;;;;;;5121580;27;20058;-68
2022/03/19 02:29:17;;;;;;;18.20;3.17;;;2.60;77.80;;;;;;5072029;28;20378;-68
2022/03/19 02:31:46;;;;;;;11.87;2.47;;;2.60;77.90;;;;;;5102975;27;20100;-68
2022/03/19 02:34:11;;;;;;;16.45;2.40;;;2.60;78.10;;;;;;5070912;28;20094;-68
2022/03/19 02:36:40;;;;;;;15.50;2.93;;;2.60;77.90;;;;;;5053580;28;20119;-68
2022/03/19 02:39:12;;;;;;;14.73;2.97;;;2.60;78.00;;;;;;5122638;27;20044;-68
2022/03/19 02:41:46;;;;;;;14.88;2.30;;;2.50;78.10;;;;;;5071217;28;20048;-68
2022/03/19 02:44:12;;;;;;;8.57;2.72;;;2.50;78.20;;;;;;5104171;28;20541;-68
2022/03/19 02:46:40;;;;;;;9.30;1.98;;;2.50;78.20;;;;;;5054861;28;20079;-68
2022/03/19 02:49:06;;;;;;;11.18;1.75;;;2.50;78.40;;;;;;5105010;28;20082;-68
2022/03/19 02:51:39;;;;;;;13.87;2.57;;;2.50;78.40;;;;;;5064198;28;20539;-68
2022/03/19 02:54:07;;;;;;;16.58;2.00;;;2.50;78.30;;;;;;5070642;28;20130;-68
2022/03/19 02:56:36;;;;;;;14.15;2.42;;;2.50;78.40;;;;;;5069752;28;20490;-68
2022/03/19 02:59:12;;;;;;;13.90;2.72;;;2.60;78.60;;;;;;5087601;28;20047;-68
2022/03/19 03:01:41;;;;;;;16.92;2.63;;;2.60;78.50;;;;;;5070029;28;20090;-68
2022/03/19 03:04:07;;;;;;;17.88;2.75;;;2.60;78.30;;;;;;5101187;28;20062;-68
2022/03/19 03:06:43;;;;;;;13.13;2.20;;;2.50;78.40;;;;;;5088059;28;20036;-68
2022/03/19 03:09:10;;;;;;;13.82;2.42;;;2.50;78.50;;;;;;5117053;27;20036;-68
2022/03/19 03:11:37;;;;;;;11.65;2.60;;;2.50;78.40;;;;;;5055729;28;20135;-68
2022/03/19 03:14:04;;;;;;;12.43;2.40;;;2.50;78.70;;;;;;5123822;27;20170;-68
2022/03/19 03:16:31;;;;;;;11.35;2.38;;;2.50;78.80;;;;;;5093336;28;20050;-68
2022/03/19 03:18:58;;;;;;;9.35;2.00;;;2.50;78.80;;;;;;5090611;28;20039;-68
2022/03/19 03:21:24;;;;;;;17.15;2.97;;;2.50;78.70;;;;;;5107002;28;20038;-68
2022/03/19 03:23:50;;;;;;;13.82;2.05;;;2.50;78.80;;;;;;5106470;28;20435;-68
2022/03/19 03:26:16;;;;;;;21.60;3.70;;;2.50;78.90;;;;;;5080231;28;20040;-68
2022/03/19 03:28:42;;;;;;;15.67;2.53;;;2.40;78.80;;;;;;5090788;28;20547;-68
2022/03/19 03:31:07;;;;;;;14.37;2.63;;;2.40;78.90;;;;;;5106443;27;20140;-68
2022/03/19 03:33:33;;;;;;;12.40;3.30;;;2.40;79.10;;;;;;5106386;28;20050;-68
2022/03/19 03:35:59;;;;;;;18.05;3.17;;;2.40;79.30;;;;;;5086373;28;20036;-68
2022/03/19 03:38:25;;;;;;;16.97;2.60;;;2.40;79.00;;;;;;5106811;28;20047;-68
2022/03/19 03:40:51;;;;;;;15.43;2.40;;;2.40;79.10;;;;;;5063220;28;20032;-68
2022/03/19 03:43:17;;;;;;;16.20;2.80;;;2.40;79.30;;;;;;5117799;27;20312;-68
2022/03/19 03:45:43;;;;;;;18.40;3.10;;;2.40;79.20;;;;;;5072297;28;20031;-68
2022/03/19 03:48:09;;;;;;;15.27;2.83;;;2.40;79.20;;;;;;5090690;28;20035;-68
2022/03/19 03:50:39;;;;;;;15.50;3.22;;;2.40;79.40;;;;;;5073111;28;20054;-68
2022/03/19 03:53:05;;;;;;;16.75;3.28;;;2.40;79.40;;;;;;5121215;27;20058;-68
2022/03/19 03:55:32;;;;;;;17.20;2.50;;;2.40;79.50;;;;;;5092360;28;20654;-68
2022/03/19 03:57:59;;;;;;;11.93;2.90;;;2.40;79.50;;;;;;5107002;28;20395;-68
2022/03/19 04:00:26;;;;;;;15.60;3.20;;;2.40;79.40;;;;;;5090028;28;20086;-68
2022/03/19 04:02:51;;;;;;;15.23;3.08;;;2.40;79.60;;;;;;5096769;27;20071;-68
2022/03/19 04:05:17;;;;;;;15.37;3.40;;;2.40;79.40;;;;;;5074125;28;20124;-68
2022/03/19 04:07:43;;;;;;;14.37;3.17;;;2.40;79.40;;;;;;5077760;28;20046;-68
2022/03/19 04:10:09;;;;;;;19.90;3.30;;;2.40;79.40;;;;;;5089290;28;20492;-68
2022/03/19 04:12:35;;;;;;;17.30;3.72;;;2.30;79.70;;;;;;5088599;28;20057;-68
2022/03/19 04:15:02;;;;;;;13.20;3.20;;;2.40;79.50;;;;;;5088614;28;20112;-68
2022/03/19 04:17:27;;;;;;;16.58;3.40;;;2.40;79.70;;;;;;5120232;27;20486;-68
2022/03/19 04:19:53;;;;;;;18.30;3.67;;;2.40;79.60;;;;;;5088204;28;20043;-68
2022/03/19 04:22:18;;;;;;;13.07;3.23;;;2.40;79.60;;;;;;5096354;28;20469;-68
2022/03/19 04:24:44;;;;;;;14.57;3.97;;;2.40;79.70;;;;;;5077785;28;20035;-68
2022/03/19 04:27:10;;;;;;;20.37;4.00;;;2.50;80.00;;;;;;5072859;28;20050;-68
2022/03/19 04:29:36;;;;;;;14.63;3.80;;;2.50;79.60;;;;;;5105176;28;20065;-68
2022/03/19 04:32:02;;;;;;;14.25;3.70;;;2.40;79.60;;;;;;5061577;28;20505;-68
2022/03/19 04:34:28;;;;;;;21.17;4.43;;;2.50;79.70;;;;;;5072992;28;20130;-68
2022/03/19 04:36:54;;;;;;;16.83;4.17;;;2.40;79.70;;;;;;5072298;28;20079;-68
2022/03/19 04:39:20;;;;;;;14.77;3.87;;;2.40;79.80;;;;;;5072779;28;20090;-68
2022/03/19 04:41:45;;;;;;;18.87;4.30;;;2.40;80.00;;;;;;5105730;28;20104;-68
2022/03/19 04:44:11;;;;;;;19.70;4.20;;;2.40;79.80;;;;;;5109265;27;20725;-68
2022/03/19 04:46:37;;;;;;;18.07;4.17;;;2.50;79.80;;;;;;5089685;28;20373;-68
2022/03/19 04:49:03;;;;;;;15.83;3.73;;;2.50;79.80;;;;;;5074303;28;20418;-68
2022/03/19 04:51:34;;;;;;;23.10;5.05;;;2.40;79.80;;;;;;5106197;28;20044;-68
2022/03/19 04:54:00;;;;;;;18.27;3.70;;;2.40;79.90;;;;;;5087757;28;20078;-68
2022/03/19 04:56:28;;;;;;;14.77;4.07;;;2.40;80.10;;;;;;5092094;28;20039;-68
2022/03/19 04:58:55;;;;;;;16.77;4.10;;;2.40;80.00;;;;;;5091868;28;20059;-68
2022/03/19 05:01:24;;;;;;;17.17;4.43;;;2.30;80.10;;;;;;5078183;28;20047;-68
2022/03/19 05:03:50;;;;;;;18.13;4.40;;;2.40;80.30;;;;;;5094647;28;20167;-68
2022/03/19 05:06:16;;;;;;;21.00;4.43;;;2.40;80.20;;;;;;5121679;27;20556;-68
2022/03/19 05:08:41;;;;;;;16.20;3.97;;;2.50;80.30;;;;;;5105710;28;20110;-68
2022/03/19 05:11:13;;;;;;;15.80;3.73;;;2.50;80.10;;;;;;5062453;28;20038;-68
2022/03/19 05:13:44;;;;;;;17.55;5.25;;;2.40;80.20;;;;;;5057089;28;20055;-68
2022/03/19 05:16:13;;;;;;;17.88;4.70;;;2.40;80.30;;;;;;5095352;28;20407;-68
2022/03/19 05:18:39;;;;;;;13.38;3.97;;;2.40;80.20;;;;;;5090731;28;20075;-68
2022/03/19 05:21:05;;;;;;;19.73;5.57;;;2.40;80.10;;;;;;5068498;28;20032;-68
2022/03/19 05:23:31;;;;;;;15.43;4.30;;;2.40;80.10;;;;;;5077653;28;20745;-68
2022/03/19 05:25:58;;;;;;;20.90;6.22;;;2.30;80.30;;;;;;5120333;27;20031;-68
2022/03/19 05:28:25;;;;;;;20.33;5.72;;;2.40;80.70;;;;;;5104909;28;20039;-68
2022/03/19 05:30:52;;;;;;;19.10;5.22;;;2.40;80.70;;;;;;5120659;28;20172;-68
2022/03/19 05:33:18;;;;;;;22.73;5.38;;;2.40;80.60;;;;;;5071584;28;20035;-68
2022/03/19 05:35:45;;;;;;;16.02;4.57;;;2.40;80.50;;;;;;5089795;28;20490;-68
2022/03/19 05:38:12;;;;;;;16.13;5.07;;;2.40;80.60;;;;;;5087188;28;20031;-68
2022/03/19 05:40:37;;;;;;;15.75;4.28;;;2.40;80.50;;;;;;5104501;28;20043;-68
2022/03/19 05:43:03;;;;;;;16.83;5.23;;;2.40;80.70;;;;;;5103275;28;20046;-68
2022/03/19 05:45:29;;;;;;;15.03;4.77;;;2.40;80.70;;;;;;5121829;27;20819;-68
2022/03/19 05:47:54;;;;;;;20.57;5.30;;;2.40;80.60;;;;;;5072414;28;20072;-68
2022/03/19 05:50:20;;;;;;;20.17;5.13;;;2.50;80.70;;;;;;5081629;28;20035;-68
2022/03/19 05:52:46;;;;;;;16.20;4.27;;;2.50;80.70;;;;;;5097336;28;20091;-68
2022/03/19 05:55:13;;;;;;;13.53;4.70;;;2.50;80.50;;;;;;5104759;28;20537;-68
2022/03/19 05:57:40;;;;;;;19.42;4.90;;;2.40;80.60;;;;;;5090724;28;20048;-68
2022/03/19 06:00:08;;;;;;;18.90;5.15;;;2.50;80.50;;;;;;5085099;28;20043;-68
2022/03/19 06:02:43;;;;;;;14.93;5.28;;;2.40;80.60;;;;;;5122262;28;20079;-68
2022/03/19 06:05:09;;;;;;;13.85;4.45;;;2.40;80.80;;;;;;5121573;28;20075;-68
2022/03/19 06:07:35;;;;;;;14.98;4.60;;;2.50;80.60;;;;;;5120964;28;20043;-68
2022/03/19 06:10:01;;;;;;;15.35;4.78;;;2.50;80.60;;;;;;5095228;28;20515;-68
2022/03/19 06:12:27;;;;;;;15.82;5.13;;;2.50;80.60;;;;;;5120345;27;20050;-68
2022/03/19 06:14:54;;;;;;;21.23;5.30;;;2.60;80.60;;;;;;5104682;28;20060;-68
2022/03/19 06:17:20;;;;;;;16.05;5.13;;;2.60;80.80;;;;;;5088974;28;20079;-68
2022/03/19 06:19:46;;;;;;;20.52;5.55;;;2.70;80.50;;;;;;5057293;28;20551;-68
2022/03/19 06:22:12;;;;;;;13.17;5.33;;;2.70;80.40;;;;;;5086896;28;20080;-68
2022/03/19 06:24:38;;;;;;;16.93;5.37;;;2.70;80.20;;;;;;5091040;28;20399;-68
2022/03/19 06:27:04;;;;;;;17.10;4.60;;;2.80;80.10;;;;;;5125340;27;20032;-68
2022/03/19 06:29:30;;;;;;;14.70;5.05;;;2.80;80.20;;;;;;5096456;28;20633;-68
2022/03/19 06:31:56;;;;;;;17.10;5.45;;;2.90;80.00;;;;;;5091085;28;20100;-68
2022/03/19 06:34:22;;;;;;;16.60;5.15;;;3.00;79.90;;;;;;5121741;27;20051;-68
2022/03/19 06:39:32;;;;;;;20.50;5.10;;;3.20;79.30;;;;;;5089850;28;20059;-68
2022/03/19 06:41:58;;;;;;;16.90;5.40;;;3.30;78.90;;;;;;5096855;28;20043;-68
2022/03/19 06:44:24;;;;;;;18.27;4.93;;;3.40;78.40;;;;;;5095660;27;20470;-68
2022/03/19 06:46:50;;;;;;;14.65;5.05;;;3.40;78.30;;;;;;5096624;28;20123;-68
2022/03/19 06:49:15;;;;;;;19.47;5.50;;;3.50;78.10;;;;;;5085556;28;20422;-68
2022/03/19 06:51:41;;;;;;;21.20;6.50;;;3.60;78.00;;;;;;5107784;28;20032;-68
2022/03/19 06:54:07;;;;;;;16.23;5.47;;;3.60;77.60;;;;;;5059034;28;20067;-68
2022/03/19 06:56:33;;;;;;;18.43;6.27;;;3.70;77.50;;;;;;5123622;27;20501;-68
2022/03/19 06:58:59;;;;;;;23.17;5.53;;;3.80;77.30;;;;;;5075019;28;20614;-68
2022/03/19 07:01:25;;;;;;;13.67;4.83;;;3.90;77.20;;;;;;5091001;28;21067;-68
2022/03/19 07:03:50;;;;;;;15.30;4.80;;;4.00;77.10;;;;;;5090271;28;20066;-68
2022/03/19 07:06:18;;;;;;;17.70;5.40;;;4.10;77.00;;;;;;5085423;28;20043;-68
2022/03/19 07:08:43;;;;;;;19.33;5.05;;;4.20;76.80;;;;;;5061371;27;20043;-68
2022/03/19 07:11:11;;;;;;;11.10;4.63;;;4.30;76.70;;;;;;5114119;27;20464;-68
2022/03/19 07:13:37;;;;;;;17.05;5.32;;;4.40;75.80;;;;;;5107186;28;20087;-68
2022/03/19 07:16:06;;;;;;;14.10;5.10;;;4.60;75.20;;;;;;5095505;28;20150;-68
2022/03/19 07:18:32;;;;;;;12.80;4.50;;;4.70;74.90;;;;;;5074873;28;20504;-68
2022/03/19 07:20:58;;;;;;;14.80;4.82;;;4.70;74.80;;;;;;5125043;27;20041;-68
2022/03/19 07:23:23;;;;;;;20.23;5.80;;;4.80;74.60;;;;;;5090426;28;20350;-68
2022/03/19 07:25:49;;;;;;;14.10;5.17;;;4.90;74.50;;;;;;5107944;28;20088;-68
2022/03/19 07:28:19;;;;;;;16.13;5.40;;;5.00;74.50;;;;;;5125442;27;20039;-68
2022/03/19 07:30:46;;;;;;;12.25;5.55;;;5.00;74.10;;;;;;5105685;28;20377;-68
2022/03/19 07:33:12;;;;;;;15.77;4.78;;;5.10;73.90;;;;;;5096108;28;20361;-68
2022/03/19 07:35:39;;;;;;;16.67;4.67;;;5.30;73.00;;;;;;5093150;28;20048;-68
2022/03/19 07:38:06;;;;;;;14.10;4.63;;;5.40;72.90;;;;;;5125017;27;20139;-68
2022/03/19 07:43:19;;;;;;;;;;;5.50;71.90;;;;;;5119567;27;20102;-68
2022/03/19 07:45:45;;;;;;;15.32;5.25;;;5.60;71.30;;;;;;5123297;27;19923;-68
2022/03/19 07:48:11;;;;;;;14.73;4.65;;;5.70;71.00;;;;;;5074999;27;20145;-68
2022/03/19 07:50:38;;;;;;;16.17;4.67;;;5.80;70.30;;;;;;5066683;28;20111;-68
2022/03/19 07:53:05;;;;;;;17.63;5.05;;;5.90;70.40;;;;;;5056296;28;20044;-68
2022/03/19 07:55:31;;;;;;;13.68;4.18;;;6.00;70.20;;;;;;5093436;27;20109;-68
2022/03/19 07:57:57;;;;;;;15.30;4.65;;;6.10;70.60;;;;;;5094768;28;20047;-68
2022/03/19 08:00:22;;;;;;;17.10;5.13;;;6.10;70.40;;;;;;5099182;27;20039;-68
2022/03/19 08:02:48;;;;;;;12.60;4.33;;;6.30;69.80;;;;;;5099463;28;20035;-68
2022/03/19 08:05:14;;;;;;;14.67;4.80;;;6.30;69.90;;;;;;5087159;28;20050;-68
2022/03/19 08:07:40;;;;;;;16.80;4.97;;;6.40;70.00;;;;;;5088641;28;20040;-69
2022/03/19 08:10:10;;;;;;;12.57;4.70;;;6.60;69.70;;;;;;5071289;28;20055;-69
2022/03/19 08:12:36;;;;;;;15.80;5.13;;;6.70;69.80;;;;;;5075008;28;20082;-69
2022/03/19 08:15:09;;;;;;;14.63;5.00;;;6.80;69.30;;;;;;5104249;28;20485;-69
2022/03/19 08:17:38;;;;;;;16.00;4.85;;;6.90;69.20;;;;;;5089327;28;20086;-68
2022/03/19 08:20:06;;;;;;;20.27;4.68;;;7.00;68.90;;;;;;5088931;27;20118;-68
2022/03/19 08:22:32;;;;;;;16.50;5.25;;;7.10;68.90;;;;;;5068109;28;20035;-68
2022/03/19 08:24:59;;;;;;;16.35;5.00;;;7.20;68.70;;;;;;5050195;28;20034;-68
2022/03/19 08:27:26;;;;;;;14.60;5.10;;;7.20;69.00;;;;;;5118278;27;20039;-68
2022/03/19 08:29:52;;;;;;;12.80;4.95;;;7.30;69.30;;;;;;5082778;28;20618;-71
2022/03/19 08:32:18;;;;;;;14.43;5.15;;;7.40;68.50;;;;;;5118202;27;20036;-71
2022/03/19 08:34:44;;;;;;;17.88;5.72;;;7.40;68.10;;;;;;5079940;28;20352;-71
2022/03/19 08:37:11;;;;;;;12.82;4.57;;;7.50;68.40;;;;;;5085550;28;20047;-71
2022/03/19 08:42:22;;;;;;;11.55;4.32;;;7.60;67.40;;;;;;5122105;27;20078;-71
2022/03/19 08:44:48;;;;;;;13.68;4.25;;;7.70;66.40;;;;;;5105722;28;20428;-73
2022/03/19 08:47:13;;;;;;;15.17;4.20;;;7.70;66.30;;;;;;5088215;27;20069;-73
2022/03/19 08:49:39;;;;;;;14.23;4.33;;;7.80;65.70;;;;;;5106737;27;20365;-70
2022/03/19 08:52:05;;;;;;;27.93;8.00;;;7.90;65.80;;;;;;5105601;28;20039;-70
2022/03/19 08:54:31;;;;;;;34.20;9.93;;;8.00;64.80;;;;;;5089084;28;20063;-69
2022/03/19 08:56:56;;;;;;;30.83;9.57;;;7.90;71.00;;;;;;5068607;28;20054;-69
2022/03/19 08:59:22;;;;;;;13.93;4.43;;;7.80;69.60;;;;;;5069665;28;20087;-69
2022/03/19 09:01:50;;;;;;;14.37;4.13;;;7.80;67.70;;;;;;5073003;28;20065;-70
2022/03/19 09:04:17;;;;;;;12.63;4.38;;;8.00;66.30;;;;;;5084136;28;20258;-71
2022/03/19 09:06:43;;;;;;;25.00;6.18;;;8.20;65.10;;;;;;5094114;28;20048;-70
2022/03/19 09:09:11;;;;;;;17.75;4.15;;;8.20;65.10;;;;;;5070673;28;20067;-71
2022/03/19 09:11:37;;;;;;;17.15;4.20;;;8.30;65.00;;;;;;5104669;27;20576;-71
2022/03/19 09:14:05;;;;;;;18.08;4.70;;;8.40;65.00;;;;;;5085236;27;20063;-71
2022/03/19 09:16:32;;;;;;;19.75;4.80;;;8.50;64.60;;;;;;5102870;27;20043;-70
2022/03/19 09:18:57;;;;;;;14.43;4.00;;;8.60;64.00;;;;;;5103157;28;20089;-70
2022/03/19 09:21:23;;;;;;;14.70;3.93;;;8.60;63.60;;;;;;5070126;28;20071;-70
2022/03/19 09:23:49;;;;;;;23.13;6.50;;;8.70;62.50;;;;;;5087503;27;20326;-72
2022/03/19 09:26:16;;;;;;;30.63;8.40;;;8.80;63.00;;;;;;5085164;28;20033;-71
2022/03/19 09:28:42;;;;;;;18.30;4.60;;;8.90;62.90;;;;;;5081057;27;20035;-71
2022/03/19 09:31:08;;;;;;;11.45;3.90;;;8.90;62.70;;;;;;5102505;28;20040;-70
2022/03/19 09:33:34;;;;;;;49.92;12.52;;;9.00;62.30;;;;;;5086592;28;20683;-69
2022/03/19 09:36:01;;;;;;;15.40;3.45;;;9.10;62.70;;;;;;5092943;28;20050;-71
2022/03/19 09:38:30;;;;;;;11.68;3.17;;;9.20;61.50;;;;;;5125090;27;20551;-70
2022/03/19 09:40:57;;;;;;;12.93;2.92;;;9.30;60.80;;;;;;5092274;28;20050;-71
2022/03/19 09:43:23;;;;;;;10.55;2.42;;;9.30;59.70;;;;;;5121959;27;20044;-71
2022/03/19 09:45:49;;;;;;;10.60;2.17;;;9.30;59.20;;;;;;5108483;28;20035;-71
2022/03/19 09:48:15;;;;;;;9.68;2.25;;;9.40;59.00;;;;;;5092197;28;20028;-71
2022/03/19 09:50:41;;;;;;;12.97;2.87;;;9.40;59.20;;;;;;5091562;28;20058;-70
2022/03/19 09:53:09;;;;;;;8.20;2.40;;;9.50;58.00;;;;;;5056985;28;20040;-71
2022/03/19 09:55:41;;;;;;;11.05;2.95;;;9.60;57.60;;;;;;5119959;27;20036;-71
2022/03/19 09:58:06;;;;;;;11.20;2.00;;;9.60;58.20;;;;;;5117909;27;20040;-71
2022/03/19 10:00:32;;;;;;;13.27;1.83;;;9.70;56.40;;;;;;5090668;28;20097;-71
2022/03/19 10:03:06;;;;;;;7.57;1.90;;;9.70;56.20;;;;;;5094355;28;20147;-71
2022/03/19 10:08:41;;;;;;;5.90;1.42;;;9.90;54.00;;;;;;5088781;28;20072;-71
2022/03/19 10:11:09;;;;;;;7.35;2.25;;;9.90;53.60;;;;;;5083562;28;20415;-71
2022/03/19 10:13:46;;;;;;;6.95;1.67;;;10.00;53.50;;;;;;5085166;27;20055;-71
2022/03/19 10:16:22;;;;;;;10.05;1.70;;;10.10;52.80;;;;;;5122131;27;20047;-71
2022/03/19 10:18:59;;;;;;;7.00;1.50;;;10.10;52.60;;;;;;5125424;27;20031;-71
2022/03/19 10:21:26;;;;;;;6.38;1.35;;;10.20;50.80;;;;;;5058944;28;20130;-71
2022/03/19 10:23:53;;;;;;;7.35;1.60;;;10.30;50.50;;;;;;5090531;28;20039;-71
2022/03/19 10:26:29;;;;;;;10.15;1.95;;;10.40;50.90;;;;;;5096493;28;20046;-71
2022/03/19 10:29:09;;;;;;;11.07;2.55;;;10.50;51.70;;;;;;5081638;28;20885;-71
2022/03/19 10:31:44;;;;;;;8.07;2.20;;;10.50;51.70;;;;;;5094069;28;20038;-70
2022/03/19 10:34:10;;;;;;;11.35;2.10;;;10.60;51.50;;;;;;5096410;28;20127;-70
2022/03/19 10:36:41;;;;;;;8.80;1.75;;;10.70;50.60;;;;;;5077787;28;20171;-71
2022/03/19 10:39:19;;;;;;;8.45;1.90;;;10.80;49.20;;;;;;5074346;28;20039;-70
2022/03/19 10:41:46;;;;;;;6.20;1.60;;;10.80;50.10;;;;;;5097099;28;20042;-70
2022/03/19 10:44:14;;;;;;;5.78;1.45;;;10.90;49.00;;;;;;5093268;27;20042;-71
2022/03/19 10:46:47;;;;;;;10.50;2.08;;;10.90;47.30;;;;;;5100910;28;20058;-71
2022/03/19 10:49:14;;;;;;;3.42;1.10;;;11.00;46.50;;;;;;5126285;27;20044;-71
2022/03/19 10:51:44;;;;;;;6.43;1.73;;;11.00;45.50;;;;;;5067096;28;20116;-71
2022/03/19 10:54:11;;;;;;;8.10;1.40;;;11.10;45.70;;;;;;5091015;28;20067;-71
2022/03/19 10:56:38;;;;;;;9.77;2.22;;;11.10;46.90;;;;;;5101891;28;20400;-71
2022/03/19 10:59:04;;;;;;;7.22;1.35;;;11.20;45.20;;;;;;5093653;27;20443;-71
2022/03/19 11:01:35;;;;;;;6.68;1.52;;;11.20;46.20;;;;;;5076458;28;20484;-71
2022/03/19 11:04:03;;;;;;;5.88;1.33;;;11.30;47.10;;;;;;5097354;28;20127;-71
2022/03/19 11:06:32;;;;;;;9.23;1.30;;;11.40;45.70;;;;;;5101094;28;20499;-71
2022/03/19 11:09:04;;;;;;;4.43;1.42;;;11.40;44.10;;;;;;5092807;28;20568;-71
2022/03/19 11:11:54;;;;;;;6.43;1.35;;;11.50;45.00;;;;;;5125262;27;20537;-71
2022/03/19 11:14:23;;;;;;;8.00;1.92;;;11.50;43.90;;;;;;5090739;28;20060;-71
2022/03/19 11:19:43;;;;;;;4.03;1.20;;;11.60;44.20;;;;;;5117622;27;20131;-71
2022/03/19 11:22:10;;;;;;;6.18;1.70;;;11.70;43.30;;;;;;5093311;28;20039;-71
2022/03/19 11:25:04;;;;;;;5.68;1.73;;;11.70;44.70;;;;;;5124498;27;20134;-71
2022/03/19 11:27:33;;;;;;;6.95;1.52;;;11.80;45.30;;;;;;5078982;28;20413;-71
2022/03/19 11:29:59;;;;;;;5.35;1.23;;;11.90;45.20;;;;;;5124265;27;20089;-71
2022/03/19 11:32:25;;;;;;;7.33;1.90;;;11.90;45.20;;;;;;5062993;28;20066;-71
2022/03/19 11:35:02;;;;;;;7.88;1.70;;;12.00;44.70;;;;;;5057782;28;20281;-71
2022/03/19 11:38:11;;;;;;;7.88;1.63;;;12.00;45.40;;;;;;5124387;27;20039;-71
2022/03/19 11:40:42;;;;;;;6.47;1.63;;;12.20;45.60;;;;;;5070700;28;20052;-71
2022/03/19 11:43:09;;;;;;;4.57;1.35;;;12.30;45.00;;;;;;5068491;28;20496;-71
2022/03/19 11:45:59;;;;;;;5.10;1.60;;;12.40;44.80;;;;;;5099409;28;20039;-71
2022/03/19 11:48:45;;;;;;;9.50;2.00;;;12.40;44.90;;;;;;5077776;28;21143;-71
2022/03/19 11:51:24;;;;;;;5.95;1.77;;;12.40;45.10;;;;;;5054006;27;20759;-71
2022/03/19 11:54:12;;;;;;;8.63;1.52;;;12.50;44.50;;;;;;5066897;28;20040;-71
2022/03/19 11:56:41;;;;;;;6.77;1.20;;;12.50;44.40;;;;;;5107196;27;20042;-71
2022/03/19 11:59:15;;;;;;;4.95;1.10;;;12.60;43.60;;;;;;5105124;28;20289;-71
2022/03/19 12:01:48;;;;;;;8.25;1.52;;;12.60;42.90;;;;;;5097591;28;20537;-71
2022/03/19 12:04:14;;;;;;;6.77;1.40;;;12.60;42.50;;;;;;5123839;27;20114;-71
2022/03/19 12:06:51;;;;;;;6.20;1.17;;;12.70;43.30;;;;;;5092325;28;20292;-71
2022/03/19 12:09:16;;;;;;;5.00;1.07;;;12.70;41.40;;;;;;5072275;28;20357;-71
2022/03/19 12:12:06;;;;;;;4.77;1.17;;;12.70;42.70;;;;;;5073591;28;21024;-71
2022/03/19 12:14:34;;;;;;;5.27;1.30;;;12.80;43.30;;;;;;5088267;27;20067;-72
2022/03/19 12:17:15;;;;;;;7.10;1.47;;;12.90;42.80;;;;;;5127544;27;20285;-72
2022/03/19 12:20:05;;;;;;;6.33;1.67;;;12.90;42.40;;;;;;5075295;28;20288;-71
2022/03/19 12:22:41;;;;;;;9.20;2.20;;;13.00;42.30;;;;;;5101852;27;20309;-71
2022/03/19 12:25:23;;;;;;;4.33;1.23;;;13.00;42.60;;;;;;5102168;28;20317;-72
2022/03/19 12:27:56;;;;;;;5.67;0.80;;;13.10;40.20;;;;;;5087419;28;20289;-71
2022/03/19 12:30:23;;;;;;;6.00;0.73;;;13.10;39.30;;;;;;5088229;28;20615;-71
2022/03/19 12:32:54;;;;;;;5.47;1.27;;;13.00;41.70;;;;;;5073149;28;20383;-72
2022/03/19 12:35:40;;;;;;;5.93;1.10;;;13.10;40.80;;;;;;5088513;28;20297;-71
2022/03/19 12:38:06;;;;;;;5.70;1.20;;;13.20;40.20;;;;;;5060570;27;20301;-71
2022/03/19 12:43:17;;;;;;;;;;;13.10;42.10;;;;;;5096484;28;20048;-71
2022/03/19 12:45:46;;;;;;;5.20;1.00;;;13.10;41.60;;;;;;5094485;28;19941;-71
2022/03/19 12:48:15;;;;;;;6.03;0.90;;;13.10;40.80;;;;;;5087912;27;20035;-71
2022/03/19 12:50:51;;;;;;;3.47;1.20;;;13.10;40.30;;;;;;5087808;28;20295;-71
2022/03/19 12:53:28;;;;;;;3.33;0.83;;;13.10;39.10;;;;;;5106237;27;20436;-71
2022/03/19 12:56:17;;;;;;;3.70;1.30;;;13.00;39.90;;;;;;5126227;27;20307;-71
2022/03/19 12:58:45;;;;;;;4.43;0.90;;;13.00;41.30;;;;;;5079456;28;20321;-71
2022/03/19 13:01:22;;;;;;;3.17;0.80;;;13.10;39.40;;;;;;5069802;28;20380;-71
2022/03/19 13:03:56;;;;;;;5.07;1.47;;;13.10;40.10;;;;;;5117711;27;20327;-70
2022/03/19 13:06:36;;;;;;;4.47;0.80;;;13.10;39.30;;;;;;5121056;27;20716;-70
2022/03/19 13:09:04;;;;;;;4.97;1.33;;;13.10;39.30;;;;;;5086937;28;20282;-70
2022/03/19 13:11:50;;;;;;;4.13;1.00;;;13.10;41.00;;;;;;5103477;27;20313;-71
2022/03/19 13:14:18;;;;;;;10.00;1.93;;;13.10;42.80;;;;;;5086574;28;20666;-72